createdAt,value
2023-04-18T00:00:45.000Z,56.2
2023-04-18T00:02:00.000Z,58.4
2023-04-18T00:04:31.870Z,59.7
2023-04-18T00:05:47.000Z,56.3
2023-04-18T00:07:02.000Z,54.5
2023-04-18T00:08:18.000Z,53.7
2023-04-18T00:09:34.000Z,51.2
2023-04-18T00:10:50.000Z,50
2023-04-18T00:12:06.783Z,50.3
2023-04-18T00:13:22.000Z,50.2
2023-04-18T00:14:38.000Z,49.6
2023-04-18T00:15:54.000Z,50
2023-04-18T00:17:11.000Z,51
2023-04-18T00:18:27.000Z,51.4
2023-04-18T00:19:43.000Z,50.7
2023-04-18T00:20:59.000Z,51
2023-04-18T00:22:15.000Z,50.8
2023-04-18T00:23:31.000Z,51.2
2023-04-18T00:24:47.000Z,51.8
2023-04-18T00:26:03.000Z,52.4
2023-04-18T00:27:19.000Z,51.1
2023-04-18T00:28:35.000Z,51.7
2023-04-18T00:29:51.000Z,53.9
2023-04-18T00:31:07.000Z,56.1
2023-04-18T00:32:23.000Z,60.3
2023-04-18T00:33:39.000Z,60.4
2023-04-18T00:34:55.000Z,58.5
2023-04-18T00:36:10.626Z,53.3
2023-04-18T00:37:25.000Z,50.9
2023-04-18T00:38:41.000Z,48.3
2023-04-18T00:39:57.000Z,47.6
2023-04-18T00:41:13.000Z,47
2023-04-18T00:42:30.000Z,46.1
2023-04-18T00:43:46.000Z,47.2
2023-04-18T00:45:02.000Z,47
2023-04-18T00:46:18.000Z,47.3
2023-04-18T00:47:34.000Z,47.1
2023-04-18T00:48:50.000Z,47.4
2023-04-18T00:50:07.240Z,47.7
2023-04-18T00:51:23.000Z,47.2
2023-04-18T00:52:39.000Z,47.4
2023-04-18T00:53:54.000Z,47.2
2023-04-18T00:55:10.000Z,48
2023-04-18T00:56:26.000Z,50.3
2023-04-18T00:57:43.132Z,48.3
2023-04-18T00:58:59.000Z,46.9
2023-04-18T01:00:15.000Z,45.5
2023-04-18T01:01:31.000Z,45.3
2023-04-18T01:02:46.000Z,44.8
2023-04-18T01:04:01.000Z,45.7
2023-04-18T01:05:17.000Z,48
2023-04-18T01:06:33.000Z,52
2023-04-18T01:07:50.000Z,51
2023-04-18T01:09:06.490Z,44.8
2023-04-18T01:10:22.000Z,42.1
2023-04-18T01:11:37.000Z,41.4
2023-04-18T01:12:52.000Z,42.3
2023-04-18T01:14:08.000Z,41.8
2023-04-18T01:15:25.000Z,41.5
2023-04-18T01:16:41.000Z,42
2023-04-18T01:17:57.000Z,42.4
2023-04-18T01:19:13.000Z,43
2023-04-18T01:20:29.830Z,43.2
2023-04-18T01:21:45.000Z,48.6
2023-04-18T01:23:01.000Z,48.3
2023-04-18T01:24:18.000Z,46
2023-04-18T01:25:34.000Z,44.1
2023-04-18T01:26:50.000Z,42.9
2023-04-18T01:28:06.000Z,43.1
2023-04-18T01:29:21.000Z,42.7
2023-04-18T01:30:37.000Z,42.5
2023-04-18T01:31:53.000Z,42.6
2023-04-18T01:33:10.000Z,42.4
2023-04-18T01:34:26.000Z,42.4
2023-04-18T01:35:42.000Z,41.5
2023-04-18T01:36:58.000Z,40.8
2023-04-18T01:38:13.000Z,40.9
2023-04-18T01:39:29.073Z,40.3
2023-04-18T01:40:44.000Z,39
2023-04-18T01:42:01.000Z,37.9
2023-04-18T01:43:16.000Z,38.5
2023-04-18T01:44:31.000Z,39.3
2023-04-18T01:45:47.000Z,39.4
2023-04-18T01:47:03.000Z,41.6
2023-04-18T01:48:19.000Z,41.5
2023-04-18T01:49:36.000Z,40.4
2023-04-18T01:50:52.427Z,37.8
2023-04-18T01:52:08.000Z,37
2023-04-18T01:53:24.000Z,36.4
2023-04-18T01:54:40.000Z,35.7
2023-04-18T01:55:56.000Z,34.6
2023-04-18T01:57:12.000Z,32.9
2023-04-18T01:58:29.000Z,31.7
2023-04-18T01:59:45.000Z,31.7
2023-04-18T02:01:00.607Z,31.3
2023-04-18T02:02:16.000Z,32.3
2023-04-18T02:03:32.000Z,31.6
2023-04-18T02:04:48.000Z,30.3
2023-04-18T02:06:04.000Z,29.8
2023-04-18T02:07:21.000Z,29.3
2023-04-18T02:08:37.000Z,29.4
2023-04-18T02:09:52.000Z,30.5
2023-04-18T02:11:07.000Z,32.3
2023-04-18T02:12:23.000Z,32.6
2023-04-18T02:13:39.000Z,31.8
2023-04-18T02:14:56.000Z,30.6
2023-04-18T02:16:12.000Z,29.9
2023-04-18T02:17:28.000Z,28.9
2023-04-18T02:18:44.000Z,28.2
2023-04-18T02:20:00.000Z,28.2
2023-04-18T02:21:16.000Z,28.4
2023-04-18T02:22:32.000Z,28.4
2023-04-18T02:23:49.000Z,28.9
2023-04-18T02:25:05.000Z,29.2
2023-04-18T02:26:20.000Z,29.4
2023-04-18T02:27:36.719Z,29.6
2023-04-18T02:28:52.876Z,29.9
2023-04-18T02:30:08.000Z,30
2023-04-18T02:31:24.000Z,30
2023-04-18T02:32:41.000Z,30.1
2023-04-18T02:33:57.000Z,32.6
2023-04-18T02:35:13.000Z,35.4
2023-04-18T02:36:28.000Z,35.1
2023-04-18T02:37:44.000Z,36.4
2023-04-18T02:38:59.000Z,34.8
2023-04-18T02:40:15.000Z,33
2023-04-18T02:41:31.000Z,31.9
2023-04-18T02:42:47.000Z,31.1
2023-04-18T02:44:03.000Z,30.7
2023-04-18T02:45:19.000Z,32.5
2023-04-18T02:46:35.000Z,36
2023-04-18T02:47:51.000Z,37.1
2023-04-18T02:49:08.000Z,34.4
2023-04-18T02:50:24.415Z,33.8
2023-04-18T02:51:40.000Z,33.5
2023-04-18T02:52:56.000Z,33.5
2023-04-18T02:54:12.000Z,32.8
2023-04-18T02:55:28.000Z,34.3
2023-04-18T02:56:43.000Z,35.6
2023-04-18T02:58:00.000Z,35.8
2023-04-18T02:59:16.000Z,37.2
2023-04-18T03:00:32.000Z,37.9
2023-04-18T03:01:48.000Z,38.8
2023-04-18T03:03:04.000Z,40
2023-04-18T03:04:21.033Z,41.2
2023-04-18T03:05:35.000Z,42.6
2023-04-18T03:06:51.361Z,44.7
2023-04-18T03:08:06.000Z,47.4
2023-04-18T03:09:21.000Z,49.4
2023-04-18T03:10:37.000Z,52.9
2023-04-18T03:11:53.000Z,53.3
2023-04-18T03:13:08.000Z,55.7
2023-04-18T03:14:24.000Z,57.1
2023-04-18T03:15:40.000Z,60.5
2023-04-18T03:16:56.000Z,62
2023-04-18T03:18:12.000Z,64.5
2023-04-18T03:19:28.894Z,65.9
2023-04-18T03:20:44.000Z,66.8
2023-04-18T03:22:00.000Z,67.4
2023-04-18T03:24:33.000Z,67.7
2023-04-18T03:25:49.000Z,69
2023-04-18T03:27:05.000Z,69.3
2023-04-18T03:28:21.000Z,69.4
2023-04-18T03:29:37.000Z,69.3
2023-04-18T03:30:52.000Z,69.5
2023-04-18T03:32:09.000Z,69.5
2023-04-18T03:33:25.000Z,69
2023-04-18T03:34:41.000Z,68.8
2023-04-18T03:35:57.000Z,69.2
2023-04-18T03:37:13.000Z,70.7
2023-04-18T03:38:29.000Z,71.3
2023-04-18T03:39:46.000Z,72.4
2023-04-18T03:41:01.000Z,72.9
2023-04-18T03:42:16.000Z,71.7
2023-04-18T03:43:31.000Z,71.8
2023-04-18T03:44:46.000Z,71.9
2023-04-18T03:46:02.000Z,74.8
2023-04-18T03:47:18.000Z,75.4
2023-04-18T03:48:35.000Z,76.7
2023-04-18T03:49:51.000Z,77
2023-04-18T03:51:07.000Z,74.4
2023-04-18T03:52:23.000Z,70.9
2023-04-18T03:53:39.000Z,69.1
2023-04-18T03:54:55.000Z,69.5
2023-04-18T03:56:11.000Z,69.7
2023-04-18T03:57:28.358Z,71
2023-04-18T03:58:44.000Z,71.7
2023-04-18T04:00:00.000Z,72.4
2023-04-18T04:01:15.000Z,73.4
2023-04-18T04:02:31.000Z,73.9
2023-04-18T04:03:47.000Z,73.1
2023-04-18T04:05:04.000Z,72.4
2023-04-18T04:06:20.000Z,72.6
2023-04-18T04:07:36.000Z,73.2
2023-04-18T04:08:52.000Z,74.1
2023-04-18T04:10:07.000Z,75.6
2023-04-18T04:11:22.000Z,75.5
2023-04-18T04:12:38.000Z,77.9
2023-04-18T04:13:55.000Z,80.4
2023-04-18T04:15:10.000Z,79.6
2023-04-18T04:16:25.000Z,77.2
2023-04-18T04:17:41.000Z,76.5
2023-04-18T04:18:57.937Z,76.5
2023-04-18T04:20:13.000Z,76.7
2023-04-18T04:21:30.226Z,76.7
2023-04-18T04:22:46.377Z,76.8
2023-04-18T04:24:02.000Z,76.8
2023-04-18T04:25:18.000Z,75.8
2023-04-18T04:26:34.000Z,75.7
2023-04-18T04:27:50.000Z,75.5
2023-04-18T04:29:06.000Z,75.8
2023-04-18T04:30:23.000Z,76.1
2023-04-18T04:31:39.000Z,77.6
2023-04-18T04:32:54.000Z,78.3
2023-04-18T04:34:10.000Z,76.6
2023-04-18T04:35:26.000Z,71.6
2023-04-18T04:36:42.000Z,67.1
2023-04-18T04:37:58.000Z,66.6
2023-04-18T04:39:15.000Z,65
2023-04-18T04:40:31.000Z,65.7
2023-04-18T04:41:46.000Z,65.1
2023-04-18T04:43:01.000Z,66.5
2023-04-18T04:44:17.000Z,66.4
2023-04-18T04:45:33.000Z,66.8
2023-04-18T04:46:48.000Z,67
2023-04-18T04:48:04.000Z,65.6
2023-04-18T04:49:20.000Z,66.3
2023-04-18T04:50:36.000Z,66.7
2023-04-18T04:51:52.815Z,67
2023-04-18T04:53:08.000Z,66.2
2023-04-18T04:54:24.000Z,64.3
2023-04-18T04:55:41.000Z,64.1
2023-04-18T04:56:57.000Z,64.3
2023-04-18T04:58:13.543Z,62.8
2023-04-18T04:59:29.000Z,62.4
2023-04-18T05:00:45.000Z,61.1
2023-04-18T05:02:01.000Z,59.6
2023-04-18T05:03:17.000Z,59.9
2023-04-18T05:04:33.000Z,58.6
2023-04-18T05:05:49.000Z,58
2023-04-18T05:07:05.000Z,57.1
2023-04-18T05:08:21.000Z,55.9
2023-04-18T05:09:37.000Z,56.2
2023-04-18T05:10:53.000Z,56.2
2023-04-18T05:12:09.000Z,56
2023-04-18T05:13:25.000Z,56
2023-04-18T05:14:40.000Z,55.7
2023-04-18T05:15:55.000Z,55.1
2023-04-18T05:17:10.000Z,55.3
2023-04-18T05:18:26.000Z,55
2023-04-18T05:19:42.000Z,56.2
2023-04-18T05:20:59.000Z,56.9
2023-04-18T05:22:15.000Z,57.3
2023-04-18T05:23:31.000Z,57.4
2023-04-18T05:24:47.000Z,57.9
2023-04-18T05:26:03.847Z,59.4
2023-04-18T05:27:19.000Z,60.5
2023-04-18T05:28:35.000Z,60.5
2023-04-18T05:29:52.280Z,61.4
2023-04-18T05:31:08.000Z,61.4
2023-04-18T05:32:24.000Z,61.3
2023-04-18T05:33:39.000Z,62.9
2023-04-18T05:34:55.000Z,63.3
2023-04-18T05:36:11.000Z,64.1
2023-04-18T05:37:27.000Z,64
2023-04-18T05:38:44.000Z,63.6
2023-04-18T05:40:00.000Z,64.8
2023-04-18T05:41:16.000Z,66.7
2023-04-18T05:42:31.000Z,68
2023-04-18T05:43:46.000Z,68.5
2023-04-18T05:45:02.000Z,69.8
2023-04-18T05:46:18.000Z,71
2023-04-18T05:47:33.000Z,71
2023-04-18T05:48:49.000Z,70.4
2023-04-18T05:50:05.000Z,70.7
2023-04-18T05:51:21.000Z,72.2
2023-04-18T05:52:37.000Z,72.5
2023-04-18T05:53:53.000Z,72.6
2023-04-18T05:55:10.000Z,73.3
2023-04-18T05:56:26.000Z,73
2023-04-18T05:57:42.000Z,74.8
2023-04-18T05:58:58.000Z,75.2
2023-04-18T06:00:14.000Z,76.5
2023-04-18T06:01:30.000Z,77.3
2023-04-18T06:02:46.000Z,76.3
2023-04-18T06:04:02.000Z,76.6
2023-04-18T06:05:18.000Z,78.8
2023-04-18T06:06:34.000Z,79
2023-04-18T06:07:50.000Z,78.5
2023-04-18T06:09:06.914Z,80.5
2023-04-18T06:10:22.000Z,84.8
2023-04-18T06:11:38.000Z,84.8
2023-04-18T06:12:54.000Z,87
2023-04-18T06:14:09.000Z,89.2
2023-04-18T06:15:25.000Z,91.6
2023-04-18T06:16:41.000Z,91.4
2023-04-18T06:17:57.000Z,91.2
2023-04-18T06:19:13.000Z,90.8
2023-04-18T06:20:30.000Z,92
2023-04-18T06:21:46.000Z,93.4
2023-04-18T06:23:02.000Z,93.7
2023-04-18T06:24:18.000Z,93.1
2023-04-18T06:25:34.000Z,92.1
2023-04-18T06:26:50.000Z,93.7
2023-04-18T06:28:06.000Z,93
2023-04-18T06:29:23.000Z,93.6
2023-04-18T06:30:38.000Z,94.8
2023-04-18T06:31:54.000Z,93.7
2023-04-18T06:33:10.000Z,94.9
2023-04-18T06:34:26.000Z,94.6
2023-04-18T06:35:42.000Z,96.1
2023-04-18T06:36:58.000Z,97.5
2023-04-18T06:38:15.000Z,97.8
2023-04-18T06:39:30.000Z,97.2
2023-04-18T06:40:45.000Z,96.2
2023-04-18T06:42:00.000Z,95.8
2023-04-18T06:43:15.000Z,94.8
2023-04-18T06:44:31.000Z,94.9
2023-04-18T06:45:48.000Z,97.1
2023-04-18T06:47:03.000Z,97.5
2023-04-18T06:48:18.000Z,95.5
2023-04-18T06:49:34.000Z,94.6
2023-04-18T06:50:50.000Z,96.8
2023-04-18T06:52:06.000Z,95.9
2023-04-18T06:53:22.000Z,95.7
2023-04-18T06:54:39.000Z,96.7
2023-04-18T06:55:55.000Z,97.3
2023-04-18T06:57:11.000Z,98
2023-04-18T06:58:27.000Z,99.3
2023-04-18T06:59:43.925Z,100
2023-04-18T07:00:59.000Z,100
2023-04-18T07:02:15.000Z,99.9
2023-04-18T07:03:32.000Z,98.1
2023-04-18T07:04:47.000Z,100
2023-04-18T07:06:03.000Z,99.7
2023-04-18T07:07:19.000Z,99.9
2023-04-18T07:08:35.000Z,100
2023-04-18T07:09:51.000Z,99.8
2023-04-18T07:11:08.000Z,100
2023-04-18T07:12:24.402Z,100
2023-04-18T07:13:40.000Z,99.4
2023-04-18T07:14:55.000Z,100
2023-04-18T07:16:10.000Z,100
2023-04-18T07:17:25.000Z,100
2023-04-18T07:21:13.000Z,100
2023-04-18T07:22:29.000Z,100
2023-04-18T07:23:45.000Z,100
2023-04-18T07:25:01.000Z,100
2023-04-18T07:26:17.000Z,100
2023-04-18T07:27:34.000Z,100
2023-04-18T07:28:50.000Z,100
2023-04-18T07:30:06.000Z,100
2023-04-18T07:31:22.000Z,100
2023-04-18T07:32:38.000Z,100
2023-04-18T07:33:54.000Z,100
2023-04-18T07:35:09.000Z,100
2023-04-18T07:36:26.000Z,100
2023-04-18T07:37:42.000Z,100
2023-04-18T07:38:58.000Z,100
2023-04-18T07:40:14.718Z,100
2023-04-18T07:41:30.000Z,100
2023-04-18T07:42:46.000Z,100
2023-04-18T07:44:02.000Z,100
2023-04-18T07:45:19.000Z,100
2023-04-18T07:46:34.000Z,100
2023-04-18T07:47:49.000Z,98.5
2023-04-18T07:49:05.000Z,100
2023-04-18T07:50:21.000Z,100
2023-04-18T07:51:37.000Z,100
2023-04-18T07:52:54.000Z,100
2023-04-18T07:54:10.000Z,96.6
2023-04-18T07:55:26.000Z,97.8
2023-04-18T07:56:42.000Z,94.8
2023-04-18T07:57:58.000Z,96.9
2023-04-18T07:59:14.962Z,94.3
2023-04-18T08:00:30.000Z,94.9
2023-04-18T08:01:47.000Z,87.4
2023-04-18T08:03:03.000Z,81.9
2023-04-18T08:04:18.000Z,82.5
2023-04-18T08:05:34.000Z,82.9
2023-04-18T08:06:50.000Z,81.3
2023-04-18T08:08:06.000Z,80.8
2023-04-18T08:09:23.158Z,82.7
2023-04-18T08:10:39.000Z,85.1
2023-04-18T08:11:55.000Z,89
2023-04-18T08:13:10.000Z,89.4
2023-04-18T08:14:25.000Z,91.1
2023-04-18T08:15:40.000Z,89.8
2023-04-18T08:16:55.000Z,89.1
2023-04-18T08:18:12.000Z,85.4
2023-04-18T08:19:28.000Z,87.1
2023-04-18T08:20:44.000Z,87
2023-04-18T08:22:00.000Z,83.4
2023-04-18T08:23:16.000Z,82.2
2023-04-18T08:24:32.000Z,81.9
2023-04-18T08:25:48.000Z,82.7
2023-04-18T08:27:05.000Z,82.9
2023-04-18T08:28:21.000Z,77.4
2023-04-18T08:29:37.000Z,77.4
2023-04-18T08:30:53.000Z,74.8
2023-04-18T08:32:09.000Z,76.2
2023-04-18T08:33:24.000Z,81.5
2023-04-18T08:34:40.000Z,72.3
2023-04-18T08:35:57.000Z,70.2
2023-04-18T08:37:13.000Z,69
2023-04-18T08:38:29.000Z,69.2
2023-04-18T08:39:45.773Z,70.4
2023-04-18T08:41:01.922Z,68.1
2023-04-18T08:42:17.000Z,67.9
2023-04-18T08:43:33.000Z,67.5
2023-04-18T08:44:48.000Z,66.1
2023-04-18T08:46:03.000Z,66.3
2023-04-18T08:47:18.000Z,66.5
2023-04-18T08:48:34.000Z,67.5
2023-04-18T08:49:50.000Z,66.4
2023-04-18T08:51:06.000Z,67.1
2023-04-18T08:52:23.000Z,67.5
2023-04-18T08:53:39.000Z,67.3
2023-04-18T08:54:55.000Z,67.6
2023-04-18T08:56:11.000Z,68.5
2023-04-18T08:57:27.000Z,66.8
2023-04-18T08:58:43.000Z,65.8
2023-04-18T08:59:59.000Z,67.1
2023-04-18T09:01:16.000Z,67.2
2023-04-18T09:02:32.000Z,66.4
2023-04-18T09:03:47.000Z,67.4
2023-04-18T09:05:03.000Z,65.3
2023-04-18T09:06:19.000Z,64.9
2023-04-18T09:07:35.000Z,65.6
2023-04-18T09:08:52.000Z,65
2023-04-18T09:10:08.000Z,64.3
2023-04-18T09:11:24.000Z,64.3
2023-04-18T09:12:39.000Z,63.6
2023-04-18T09:13:54.000Z,64
2023-04-18T09:15:10.000Z,63.3
2023-04-18T09:16:26.000Z,63
2023-04-18T09:17:43.000Z,65.6
2023-04-18T09:18:58.000Z,63.1
2023-04-18T09:20:13.000Z,63.2
2023-04-18T09:21:29.000Z,61.3
2023-04-18T09:22:45.000Z,61.3
2023-04-18T09:24:01.000Z,62.2
2023-04-18T09:25:18.244Z,62.3
2023-04-18T09:26:34.000Z,60.5
2023-04-18T09:27:50.000Z,59.8
2023-04-18T09:30:22.000Z,59.3
2023-04-18T09:31:38.000Z,58.2
2023-04-18T09:32:54.000Z,58.6
2023-04-18T09:34:11.000Z,57.9
2023-04-18T09:35:27.000Z,56.8
2023-04-18T09:36:42.000Z,57.3
2023-04-18T09:39:14.000Z,56.2
2023-04-18T09:40:30.040Z,56.1
2023-04-18T09:41:44.000Z,55.2
2023-04-18T09:43:01.000Z,57.3
2023-04-18T09:44:17.000Z,55.6
2023-04-18T09:45:33.000Z,55.5
2023-04-18T09:46:49.000Z,55.3
2023-04-18T09:48:05.000Z,55.1
2023-04-18T09:49:21.000Z,55.4
2023-04-18T09:50:37.000Z,55
2023-04-18T09:51:54.000Z,59.2
2023-04-18T09:53:10.000Z,58.4
2023-04-18T09:54:25.000Z,56.7
2023-04-18T09:55:40.000Z,55.2
2023-04-18T09:56:56.000Z,55
2023-04-18T09:58:12.000Z,55.7
2023-04-18T09:59:29.000Z,57.1
2023-04-18T10:00:45.000Z,58.4
2023-04-18T10:02:01.587Z,56.5
2023-04-18T10:03:17.000Z,57.1
2023-04-18T10:04:33.000Z,56.7
2023-04-18T10:05:49.000Z,57.6
2023-04-18T10:07:05.000Z,58.3
2023-04-18T10:08:22.000Z,57.5
2023-04-18T10:09:38.000Z,57.9
2023-04-18T10:10:54.000Z,58.8
2023-04-18T10:12:09.000Z,55.5
2023-04-18T10:13:25.000Z,54.8
2023-04-18T10:14:41.000Z,55
2023-04-18T10:15:57.000Z,56.7
2023-04-18T10:17:14.000Z,57.6
2023-04-18T10:18:30.000Z,57.8
2023-04-18T10:19:46.000Z,57.7
2023-04-18T10:21:01.000Z,56.6
2023-04-18T10:22:16.000Z,57
2023-04-18T10:23:32.000Z,55.9
2023-04-18T10:24:49.000Z,55.3
2023-04-18T10:26:05.000Z,55.3
2023-04-18T10:27:21.000Z,55.5
2023-04-18T10:28:37.000Z,53.6
2023-04-18T10:29:53.000Z,53.4
2023-04-18T10:31:09.000Z,54
2023-04-18T10:32:25.000Z,53.5
2023-04-18T10:33:42.000Z,55
2023-04-18T10:34:58.000Z,54.1
2023-04-18T10:36:14.000Z,52.7
2023-04-18T10:37:30.000Z,55.2
2023-04-18T10:38:45.000Z,53.3
2023-04-18T10:40:01.000Z,52.3
2023-04-18T10:41:17.000Z,52.8
2023-04-18T10:42:34.000Z,54.5
2023-04-18T10:43:50.000Z,55.2
2023-04-18T10:45:06.000Z,54.3
2023-04-18T10:46:22.000Z,55.1
2023-04-18T10:47:37.000Z,55.1
2023-04-18T10:48:52.000Z,55
2023-04-18T10:50:09.000Z,53.6
2023-04-18T10:51:25.000Z,54.6
2023-04-18T10:52:41.000Z,54.5
2023-04-18T10:53:57.000Z,54.5
2023-04-18T10:55:12.000Z,54.5
2023-04-18T10:56:28.000Z,54.5
2023-04-18T10:57:44.000Z,54.1
2023-04-18T10:59:01.000Z,53.8
2023-04-18T11:00:17.000Z,54
2023-04-18T11:01:33.000Z,56.4
2023-04-18T11:02:49.000Z,53.3
2023-04-18T11:04:05.000Z,53.5
2023-04-18T11:05:21.000Z,52.4
2023-04-18T11:06:38.198Z,53.9
2023-04-18T11:07:54.000Z,53.7
2023-04-18T11:09:10.000Z,56.1
2023-04-18T11:10:26.000Z,54.8
2023-04-18T11:11:42.000Z,54.8
2023-04-18T11:12:57.000Z,55.8
2023-04-18T11:14:12.000Z,54.9
2023-04-18T11:15:28.000Z,56.7
2023-04-18T11:16:44.000Z,56.3
2023-04-18T11:18:00.000Z,55.5
2023-04-18T11:19:16.000Z,55.1
2023-04-18T11:20:32.000Z,55.7
2023-04-18T11:21:48.000Z,58.5
2023-04-18T11:23:04.000Z,57.3
2023-04-18T11:24:21.000Z,57.3
2023-04-18T11:25:37.000Z,57
2023-04-18T11:26:53.000Z,56.5
2023-04-18T11:28:09.751Z,57.4
2023-04-18T11:29:25.000Z,58.9
2023-04-18T11:31:57.000Z,58.8
2023-04-18T11:33:13.000Z,58
2023-04-18T11:34:29.000Z,57.1
2023-04-18T11:35:45.000Z,57.3
2023-04-18T11:37:01.000Z,58.1
2023-04-18T11:38:17.000Z,57.1
2023-04-18T11:39:33.000Z,59
2023-04-18T11:40:50.000Z,58.1
2023-04-18T11:42:05.000Z,59.2
2023-04-18T11:43:20.000Z,58.4
2023-04-18T11:44:35.000Z,57.4
2023-04-18T11:45:50.000Z,58.3
2023-04-18T11:47:06.000Z,57.8
2023-04-18T11:48:22.000Z,58.9
2023-04-18T11:49:39.000Z,59.3
2023-04-18T11:50:55.000Z,58.6
2023-04-18T11:52:11.637Z,59.2
2023-04-18T11:53:27.000Z,59.8
2023-04-18T11:54:43.000Z,59.6
2023-04-18T11:55:59.000Z,59.8
2023-04-18T11:57:15.000Z,61.1
2023-04-18T11:58:32.000Z,60.4
2023-04-18T11:59:48.000Z,60.9
2023-04-18T12:01:04.000Z,60.9
2023-04-18T12:02:19.000Z,59.9
2023-04-18T12:03:35.000Z,59.5
2023-04-18T12:04:51.000Z,58.8
2023-04-18T12:06:08.000Z,59.6
2023-04-18T12:07:24.000Z,59.7
2023-04-18T12:08:40.000Z,59.2
2023-04-18T12:09:56.000Z,60.4
2023-04-18T12:11:11.000Z,59.1
2023-04-18T12:12:26.000Z,60
2023-04-18T12:13:41.000Z,60.5
2023-04-18T12:14:57.000Z,62
2023-04-18T12:16:12.000Z,61
2023-04-18T12:17:27.000Z,61.6
2023-04-18T12:18:43.000Z,62
2023-04-18T12:19:59.000Z,61.7
2023-04-18T12:21:15.000Z,59.8
2023-04-18T12:22:32.000Z,61.1
2023-04-18T12:23:48.000Z,60.4
2023-04-18T12:25:04.000Z,61.4
2023-04-18T12:26:20.000Z,62.7
2023-04-18T12:27:36.000Z,63.9
2023-04-18T12:28:52.000Z,63
2023-04-18T12:30:08.000Z,64.1
2023-04-18T12:31:25.000Z,63.9
2023-04-18T12:33:57.000Z,64.8
2023-04-18T12:35:12.000Z,63.9
2023-04-18T12:36:28.000Z,66.6
2023-04-18T12:37:44.000Z,64.7
2023-04-18T12:39:00.000Z,62.9
2023-04-18T12:40:17.000Z,64.1
2023-04-18T12:41:33.000Z,63.5
2023-04-18T12:42:49.000Z,64.2
2023-04-18T12:44:04.000Z,63.9
2023-04-18T12:45:19.000Z,64
2023-04-18T12:46:34.000Z,64
2023-04-18T12:47:50.000Z,65
2023-04-18T12:49:06.000Z,66.6
2023-04-18T12:50:21.000Z,66.4
2023-04-18T12:51:36.000Z,66
2023-04-18T12:52:52.000Z,66
2023-04-18T12:54:08.000Z,66.4
2023-04-18T12:55:25.000Z,66.8
2023-04-18T12:56:41.000Z,66
2023-04-18T12:57:57.000Z,65.8
2023-04-18T12:59:13.000Z,67
2023-04-18T13:00:29.000Z,66.9
2023-04-18T13:01:45.000Z,66.9
2023-04-18T13:03:01.000Z,68
2023-04-18T13:04:18.000Z,68.8
2023-04-18T13:05:34.000Z,69.1
2023-04-18T13:06:50.000Z,69
2023-04-18T13:08:05.000Z,68.9
2023-04-18T13:09:21.000Z,69.2
2023-04-18T13:10:37.000Z,67.6
2023-04-18T13:11:53.000Z,66.7
2023-04-18T13:13:10.000Z,68.3
2023-04-18T13:14:26.000Z,67.8
2023-04-18T13:15:42.000Z,68
2023-04-18T13:16:57.000Z,67.6
2023-04-18T13:18:12.000Z,66.2
2023-04-18T13:19:29.095Z,65.8
2023-04-18T13:20:44.000Z,65.9
2023-04-18T13:21:59.000Z,66
2023-04-18T13:23:15.000Z,66.5
2023-04-18T13:24:31.000Z,67.6
2023-04-18T13:25:47.000Z,68.3
2023-04-18T13:27:03.000Z,69.2
2023-04-18T13:28:19.000Z,67.3
2023-04-18T13:29:36.000Z,66.8
2023-04-18T13:30:52.000Z,65.2
2023-04-18T13:32:08.000Z,65.9
2023-04-18T13:33:24.000Z,64.7
2023-04-18T13:34:40.000Z,63.2
2023-04-18T13:35:56.000Z,63
2023-04-18T13:37:12.000Z,63.1
2023-04-18T13:38:28.000Z,64.5
2023-04-18T13:39:44.000Z,63.6
2023-04-18T13:41:00.000Z,63.5
2023-04-18T13:42:16.000Z,62.8
2023-04-18T13:43:32.000Z,62.6
2023-04-18T13:44:49.089Z,62.6
2023-04-18T13:46:05.000Z,64.2
2023-04-18T13:47:20.000Z,64.4
2023-04-18T13:48:35.000Z,63.5
2023-04-18T13:49:50.000Z,64.4
2023-04-18T13:51:05.000Z,65.5
2023-04-18T13:52:21.000Z,64
2023-04-18T13:54:54.000Z,63.3
2023-04-18T13:56:10.000Z,62.7
2023-04-18T13:57:26.000Z,63
2023-04-18T13:58:42.000Z,62.9
2023-04-18T13:59:58.934Z,63.4
2023-04-18T14:01:14.000Z,64.3
2023-04-18T14:02:30.000Z,64.4
2023-04-18T14:03:47.000Z,63.5
2023-04-18T14:05:03.000Z,63.8
2023-04-18T14:06:19.000Z,62.4
2023-04-18T14:07:34.000Z,62.4
2023-04-18T14:08:50.000Z,62.8
2023-04-18T14:10:06.000Z,62.6
2023-04-18T14:11:23.000Z,63.1
2023-04-18T14:12:39.000Z,62.5
2023-04-18T14:13:55.000Z,63
2023-04-18T14:15:11.000Z,60.7
2023-04-18T14:16:27.000Z,60.9
2023-04-18T14:17:42.000Z,61.1
2023-04-18T14:18:57.000Z,62.7
2023-04-18T14:20:14.000Z,61.2
2023-04-18T14:21:30.000Z,60.6
2023-04-18T14:22:45.000Z,60.8
2023-04-18T14:24:00.000Z,60.9
2023-04-18T14:25:16.000Z,60.6
2023-04-18T14:26:32.000Z,60.6
2023-04-18T14:27:49.000Z,60.4
2023-04-18T14:29:05.000Z,61
2023-04-18T14:30:21.000Z,60.5
2023-04-18T14:31:37.000Z,60.9
2023-04-18T14:32:53.000Z,61
2023-04-18T14:34:09.000Z,62.3
2023-04-18T14:35:25.000Z,60.5
2023-04-18T14:36:42.288Z,60.1
2023-04-18T14:37:58.000Z,60.6
2023-04-18T14:39:14.000Z,60.5
2023-04-18T14:40:29.000Z,59.9
2023-04-18T14:41:45.000Z,60.9
2023-04-18T14:43:01.000Z,61.4
2023-04-18T14:44:17.000Z,59.8
2023-04-18T14:45:34.000Z,60.3
2023-04-18T14:46:50.000Z,61.6
2023-04-18T14:48:06.000Z,61.8
2023-04-18T14:49:21.796Z,61.3
2023-04-18T14:50:36.000Z,60.7
2023-04-18T14:51:51.000Z,60.5
2023-04-18T14:53:07.000Z,61.1
2023-04-18T14:54:22.000Z,61.5
2023-04-18T14:55:37.000Z,60.6
2023-04-18T14:56:53.000Z,61
2023-04-18T14:58:09.000Z,59.8
2023-04-18T14:59:25.000Z,60.1
2023-04-18T15:00:41.000Z,58.8
2023-04-18T15:01:58.000Z,59.6
2023-04-18T15:03:14.000Z,59.1
2023-04-18T15:04:30.000Z,59.5
2023-04-18T15:05:46.000Z,60.2
2023-04-18T15:07:02.000Z,58.5
2023-04-18T15:08:18.000Z,58.9
2023-04-18T15:09:34.000Z,60.2
2023-04-18T15:12:06.000Z,59.8
2023-04-18T15:13:22.000Z,60
2023-04-18T15:14:38.000Z,59.8
2023-04-18T15:15:54.000Z,59.5
2023-04-18T15:17:10.000Z,59.7
2023-04-18T15:18:27.000Z,60.7
2023-04-18T15:19:43.000Z,62.1
2023-04-18T15:20:59.000Z,62
2023-04-18T15:22:14.765Z,60.3
2023-04-18T15:23:29.000Z,61
2023-04-18T15:24:44.000Z,59.7
2023-04-18T15:26:00.000Z,59.4
2023-04-18T15:27:16.000Z,58.7
2023-04-18T15:28:32.000Z,59.5
2023-04-18T15:29:48.000Z,59.9
2023-04-18T15:31:04.000Z,61.6
2023-04-18T15:32:20.000Z,60.6
2023-04-18T15:33:36.000Z,60.9
2023-04-18T15:34:53.000Z,60.6
2023-04-18T15:36:09.000Z,61.1
2023-04-18T15:37:25.000Z,60.2
2023-04-18T15:38:41.000Z,60.8
2023-04-18T15:39:57.000Z,61
2023-04-18T15:41:13.000Z,62.3
2023-04-18T15:42:28.000Z,63.7
2023-04-18T15:43:45.000Z,65.1
2023-04-18T15:45:01.000Z,65.1
2023-04-18T15:46:17.000Z,63.8
2023-04-18T15:47:33.000Z,65.1
2023-04-18T15:48:49.000Z,65.6
2023-04-18T15:50:05.000Z,66.8
2023-04-18T15:51:21.228Z,66.3
2023-04-18T15:52:36.000Z,66.4
2023-04-18T15:53:52.000Z,67.2
2023-04-18T15:55:08.000Z,68.1
2023-04-18T15:56:24.000Z,69.3
2023-04-18T15:57:40.000Z,69.8
2023-04-18T15:58:56.000Z,68
2023-04-18T16:00:13.000Z,67.4
2023-04-18T16:01:29.420Z,68.3
2023-04-18T16:02:45.000Z,67.7
2023-04-18T16:04:01.000Z,67.5
2023-04-18T16:05:17.000Z,67.4
2023-04-18T16:06:33.000Z,66.6
2023-04-18T16:07:49.000Z,65.4
2023-04-18T16:09:05.000Z,65.6
2023-04-18T16:10:21.000Z,65.2
2023-04-18T16:11:37.000Z,65.4
2023-04-18T16:12:53.000Z,65.7
2023-04-18T16:14:09.000Z,65.8
2023-04-18T16:15:25.000Z,65.8
2023-04-18T16:16:41.000Z,65.7
2023-04-18T16:17:57.366Z,65
2023-04-18T16:19:12.000Z,64.7
2023-04-18T16:20:27.000Z,64.2
2023-04-18T16:21:42.000Z,64.3
2023-04-18T16:22:57.000Z,66.1
2023-04-18T16:24:12.000Z,65.4
2023-04-18T16:25:29.000Z,66.7
2023-04-18T16:26:45.000Z,66.2
2023-04-18T16:28:01.000Z,65
2023-04-18T16:29:17.000Z,64.5
2023-04-18T16:30:33.000Z,63.3
2023-04-18T16:31:49.000Z,63.8
2023-04-18T16:33:06.000Z,62.6
2023-04-18T16:34:22.000Z,61
2023-04-18T16:35:38.000Z,60.7
2023-04-18T16:36:54.000Z,61.4
2023-04-18T16:38:10.000Z,61.5
2023-04-18T16:40:42.000Z,59.8
2023-04-18T16:41:58.000Z,57.6
2023-04-18T16:43:14.000Z,58.5
2023-04-18T16:44:30.000Z,57.4
2023-04-18T16:45:46.714Z,58.7
2023-04-18T16:47:02.000Z,59.4
2023-04-18T16:48:18.000Z,59.7
2023-04-18T16:49:34.000Z,59.4
2023-04-18T16:50:50.000Z,58.5
2023-04-18T16:52:05.000Z,59.1
2023-04-18T16:53:21.000Z,59.2
2023-04-18T16:54:36.805Z,59.6
2023-04-18T16:55:51.000Z,60
2023-04-18T16:57:07.000Z,60.4
2023-04-18T16:58:24.000Z,60.1
2023-04-18T16:59:40.000Z,60.6
2023-04-18T17:00:56.545Z,61
2023-04-18T17:02:12.000Z,61.3
2023-04-18T17:03:28.000Z,60.9
2023-04-18T17:04:44.000Z,61
2023-04-18T17:06:00.000Z,61.1
2023-04-18T17:07:17.000Z,61.1
2023-04-18T17:08:33.000Z,61.4
2023-04-18T17:09:49.000Z,61.7
2023-04-18T17:11:05.000Z,61.8
2023-04-18T17:12:20.000Z,62.6
2023-04-18T17:13:36.000Z,62.2